Time;durP1;ratioP1;P1;durP2;ratioP2;P2;SDS_P1;SDS_P2;PMS_P1;PMS_P2;Temp;Humidity;BMP_temperature;BMP_pressure;BME280_temperature;BME280_humidity;BME280_pressure;Samples;Min_cycle;Max_cycle;Signal;HPM_P1;HPM_P2
2021/01/08 00:01:40;;;;;;;3.55;3.17;;;6.90;80.20;;;;;;5014843;28;20473;-65
2021/01/08 00:04:06;;;;;;;4.07;3.00;;;6.90;80.10;;;;;;5000033;28;20097;-65
2021/01/08 00:06:32;;;;;;;3.22;2.70;;;6.90;78.80;;;;;;5002407;28;20062;-65
2021/01/08 00:08:58;;;;;;;3.45;3.15;;;6.80;78.50;;;;;;5011941;28;20041;-65
2021/01/08 00:11:24;;;;;;;3.75;3.10;;;6.70;78.70;;;;;;5012728;28;20386;-65
2021/01/08 00:13:50;;;;;;;4.07;3.17;;;6.70;79.00;;;;;;5006478;28;20034;-65
2021/01/08 00:16:16;;;;;;;4.10;3.55;;;6.70;79.30;;;;;;5012463;28;20029;-65
2021/01/08 00:18:44;;;;;;;4.18;3.40;;;6.70;79.70;;;;;;5013322;28;20022;-65
2021/01/08 00:21:10;;;;;;;4.85;4.00;;;6.70;80.00;;;;;;5009651;28;20033;-65
2021/01/08 00:23:36;;;;;;;4.90;3.53;;;6.70;80.20;;;;;;5012295;28;20030;-65
2021/01/08 00:26:02;;;;;;;4.00;3.60;;;6.80;80.10;;;;;;5011565;28;20096;-65
2021/01/08 00:28:27;;;;;;;4.25;3.85;;;6.80;80.00;;;;;;5013052;28;20049;-65
2021/01/08 00:30:53;;;;;;;3.90;3.50;;;6.90;79.90;;;;;;5013171;28;20449;-65
2021/01/08 00:33:19;;;;;;;4.55;3.83;;;6.90;79.80;;;;;;5013417;28;20022;-65
2021/01/08 00:35:45;;;;;;;4.85;4.20;;;6.90;79.30;;;;;;5010706;28;20032;-65
2021/01/08 00:38:11;;;;;;;5.15;4.40;;;7.00;79.50;;;;;;5013931;28;20080;-65
2021/01/08 00:40:37;;;;;;;5.50;4.90;;;6.90;79.10;;;;;;5013462;28;20426;-65
2021/01/08 00:43:03;;;;;;;5.50;4.63;;;6.90;79.20;;;;;;5013218;28;20022;-65
2021/01/08 00:45:29;;;;;;;5.30;4.80;;;6.90;79.50;;;;;;5007133;28;20120;-65
2021/01/08 00:47:54;;;;;;;6.63;5.20;;;6.90;79.20;;;;;;5012708;28;20121;-65
2021/01/08 00:50:20;;;;;;;6.03;5.03;;;6.90;79.70;;;;;;5001841;28;20036;-65
2021/01/08 00:52:46;;;;;;;6.57;5.22;;;6.90;80.20;;;;;;5001608;28;20145;-65
2021/01/08 00:55:12;;;;;;;5.97;4.70;;;7.00;80.40;;;;;;5007103;28;20144;-65
2021/01/08 00:57:38;;;;;;;6.00;4.60;;;7.00;80.20;;;;;;5012603;28;20022;-65
2021/01/08 01:00:06;;;;;;;5.85;5.13;;;7.00;79.50;;;;;;5008142;28;20026;-65
2021/01/08 01:02:35;;;;;;;5.55;4.68;;;7.10;79.70;;;;;;5013579;28;20485;-65
2021/01/08 01:05:02;;;;;;;4.72;4.22;;;7.00;79.50;;;;;;5012231;28;20040;-65
2021/01/08 01:07:27;;;;;;;5.60;4.80;;;7.10;79.50;;;;;;5011137;28;20030;-65
2021/01/08 01:09:53;;;;;;;5.78;5.15;;;7.10;79.20;;;;;;5012894;28;20541;-65
2021/01/08 01:12:19;;;;;;;5.72;4.82;;;7.10;79.20;;;;;;5013399;28;20056;-65
2021/01/08 01:14:45;;;;;;;5.60;4.47;;;7.10;79.30;;;;;;5011371;28;20393;-65
2021/01/08 01:17:11;;;;;;;5.72;4.30;;;7.10;79.50;;;;;;5006925;28;20053;-65
2021/01/08 01:19:37;;;;;;;5.80;4.18;;;7.10;79.20;;;;;;5012572;28;20057;-65
2021/01/08 01:22:03;;;;;;;5.85;4.65;;;7.10;78.60;;;;;;5009497;28;20085;-65
2021/01/08 01:24:28;;;;;;;4.70;4.05;;;7.10;78.40;;;;;;5002128;28;20432;-65
2021/01/08 01:26:56;;;;;;;5.07;4.20;;;7.10;78.60;;;;;;5010657;28;20038;-65
2021/01/08 01:29:26;;;;;;;5.13;4.05;;;7.00;78.20;;;;;;5005058;28;20485;-65
2021/01/08 01:31:52;;;;;;;5.30;4.38;;;7.00;78.30;;;;;;5016270;28;20030;-65
2021/01/08 01:34:18;;;;;;;4.55;3.97;;;6.90;77.80;;;;;;5012097;28;20041;-65
2021/01/08 01:36:45;;;;;;;4.70;3.80;;;6.90;78.20;;;;;;5004715;28;20035;-65
2021/01/08 01:39:13;;;;;;;4.78;4.15;;;6.90;78.10;;;;;;5012052;28;20026;-65
2021/01/08 01:41:40;;;;;;;5.75;4.30;;;6.90;78.30;;;;;;5017327;28;20101;-65
2021/01/08 01:44:05;;;;;;;4.75;3.80;;;6.90;78.70;;;;;;5013330;28;20466;-65
2021/01/08 01:46:31;;;;;;;4.97;4.30;;;6.90;78.80;;;;;;5014369;28;20029;-65
2021/01/08 01:48:57;;;;;;;4.82;4.10;;;6.90;79.00;;;;;;5010605;28;20033;-65
2021/01/08 01:51:23;;;;;;;5.45;4.45;;;6.90;79.00;;;;;;5016137;28;20025;-65
2021/01/08 01:53:50;;;;;;;4.97;4.45;;;7.00;79.00;;;;;;5016759;28;20026;-65
2021/01/08 01:56:15;;;;;;;5.00;4.25;;;7.10;79.00;;;;;;5008281;28;20045;-65
2021/01/08 01:58:41;;;;;;;5.60;4.72;;;7.10;78.90;;;;;;5016503;28;20092;-65
2021/01/08 02:01:10;;;;;;;4.95;4.45;;;7.10;78.80;;;;;;5013140;28;20172;-65
2021/01/08 02:03:49;;;;;;;4.88;4.15;;;7.20;78.60;;;;;;5016381;28;20547;-65
2021/01/08 02:06:19;;;;;;;5.60;4.85;;;7.30;78.30;;;;;;5016243;28;20022;-65
2021/01/08 02:08:53;;;;;;;5.43;4.75;;;7.20;78.10;;;;;;5013784;28;20030;-65
2021/01/08 02:11:23;;;;;;;4.70;4.20;;;7.30;78.20;;;;;;5014945;28;20034;-65
2021/01/08 02:13:52;;;;;;;5.75;5.10;;;7.30;78.00;;;;;;5012962;28;20038;-65
2021/01/08 02:16:18;;;;;;;6.00;5.13;;;7.30;77.70;;;;;;5010723;28;20026;-65
2021/01/08 02:18:47;;;;;;;5.05;4.40;;;7.30;77.60;;;;;;5014145;28;20030;-65
2021/01/08 02:21:25;;;;;;;6.13;4.90;;;7.30;77.60;;;;;;5016517;28;20381;-65
2021/01/08 02:24:19;;;;;;;5.60;4.20;;;7.30;77.60;;;;;;5012385;28;20072;-65
2021/01/08 02:26:45;;;;;;;6.00;5.03;;;7.30;77.40;;;;;;5011711;28;20034;-65
2021/01/08 02:29:11;;;;;;;5.78;4.63;;;7.40;77.60;;;;;;5015171;28;20096;-65
2021/01/08 02:31:38;;;;;;;5.07;4.53;;;7.40;77.50;;;;;;5015810;28;20030;-65
2021/01/08 02:34:05;;;;;;;5.95;5.22;;;7.40;77.30;;;;;;5014481;28;20022;-65
2021/01/08 02:36:35;;;;;;;6.20;5.03;;;7.40;77.30;;;;;;5015880;28;20470;-65
2021/01/08 02:39:01;;;;;;;7.78;4.82;;;7.40;77.30;;;;;;5009972;28;20022;-65
2021/01/08 02:41:27;;;;;;;6.32;5.50;;;7.40;77.10;;;;;;5014960;28;20034;-65
2021/01/08 02:43:53;;;;;;;6.47;5.57;;;7.40;76.80;;;;;;5011720;28;20042;-65
2021/01/08 02:46:19;;;;;;;5.43;4.82;;;7.40;76.80;;;;;;5013629;28;20382;-65
2021/01/08 02:48:45;;;;;;;6.43;5.55;;;7.50;76.60;;;;;;5014731;28;20030;-65
2021/01/08 02:51:10;;;;;;;5.28;4.72;;;7.50;76.40;;;;;;5016215;28;20026;-65
2021/01/08 02:53:38;;;;;;;7.32;5.57;;;7.40;76.30;;;;;;5013405;28;20025;-65
2021/01/08 02:56:09;;;;;;;5.88;5.28;;;7.40;76.00;;;;;;5014014;28;20045;-65
2021/01/08 02:58:37;;;;;;;7.45;5.75;;;7.40;76.20;;;;;;5015224;28;20069;-65
2021/01/08 03:01:03;;;;;;;6.82;5.70;;;7.40;76.10;;;;;;5001190;28;20031;-65
2021/01/08 03:03:30;;;;;;;7.40;5.80;;;7.40;76.10;;;;;;5015457;28;20022;-65
2021/01/08 03:05:59;;;;;;;6.78;5.22;;;7.40;75.80;;;;;;5014450;28;20502;-65
2021/01/08 03:08:26;;;;;;;6.88;5.85;;;7.40;76.00;;;;;;5015220;28;20040;-65
2021/01/08 03:10:52;;;;;;;8.98;6.50;;;7.40;75.90;;;;;;5012709;28;20022;-65
2021/01/08 03:13:18;;;;;;;6.13;5.53;;;7.40;75.80;;;;;;5014085;28;20044;-65
2021/01/08 03:15:44;;;;;;;7.10;6.07;;;7.40;75.70;;;;;;5012738;28;20057;-65
2021/01/08 03:18:10;;;;;;;7.68;6.40;;;7.50;75.80;;;;;;5012010;28;20026;-65
2021/01/08 03:20:35;;;;;;;8.38;6.38;;;7.50;75.70;;;;;;5010553;28;20052;-65
2021/01/08 03:23:03;;;;;;;9.52;6.85;;;7.40;75.70;;;;;;5005036;28;20026;-65
2021/01/08 03:25:29;;;;;;;8.75;6.45;;;7.50;75.60;;;;;;5014170;28;20389;-65
2021/01/08 03:27:55;;;;;;;8.75;6.72;;;7.50;75.60;;;;;;5014527;28;20107;-65
2021/01/08 03:30:21;;;;;;;8.52;6.50;;;7.40;75.30;;;;;;5007465;28;20034;-65
2021/01/08 03:32:47;;;;;;;8.60;6.80;;;7.40;75.20;;;;;;5005862;28;20037;-65
2021/01/08 03:35:13;;;;;;;10.07;7.60;;;7.40;75.00;;;;;;5011920;28;20022;-65
2021/01/08 03:37:38;;;;;;;10.57;7.75;;;7.40;75.10;;;;;;4999780;28;20030;-65
2021/01/08 03:40:07;;;;;;;9.60;6.80;;;7.40;75.00;;;;;;5013944;28;20124;-65
2021/01/08 03:42:34;;;;;;;10.70;7.85;;;7.40;74.80;;;;;;5014246;28;20052;-65
2021/01/08 03:44:59;;;;;;;9.93;7.18;;;7.40;74.50;;;;;;5008706;28;20032;-65
2021/01/08 03:47:25;;;;;;;10.20;7.47;;;7.40;74.70;;;;;;5013599;28;20034;-65
2021/01/08 03:49:51;;;;;;;10.00;7.93;;;7.30;74.70;;;;;;5012248;28;20359;-65
2021/01/08 03:52:17;;;;;;;11.98;8.35;;;7.30;74.70;;;;;;5012670;28;20037;-65
2021/01/08 03:54:42;;;;;;;12.02;8.40;;;7.30;74.60;;;;;;5014698;28;20026;-65
2021/01/08 03:57:08;;;;;;;12.13;8.57;;;7.20;74.50;;;;;;5009887;28;20059;-65
2021/01/08 03:59:34;;;;;;;12.63;9.23;;;7.20;74.70;;;;;;5012738;28;20026;-65
2021/01/08 04:01:59;;;;;;;13.85;9.73;;;7.20;74.90;;;;;;5014342;28;20050;-65
2021/01/08 04:04:25;;;;;;;13.27;8.68;;;7.20;74.50;;;;;;5007217;28;20018;-65
2021/01/08 04:06:51;;;;;;;11.93;8.77;;;7.20;74.90;;;;;;5013215;28;20040;-65
2021/01/08 04:09:20;;;;;;;14.40;10.23;;;7.20;75.00;;;;;;5012774;28;20022;-65
2021/01/08 04:11:46;;;;;;;12.02;8.70;;;7.10;74.90;;;;;;5012301;28;20036;-65
2021/01/08 04:14:12;;;;;;;15.20;10.25;;;7.10;74.80;;;;;;5008957;28;20383;-65
2021/01/08 04:16:39;;;;;;;13.98;9.63;;;7.10;74.70;;;;;;5013140;28;20022;-65
2021/01/08 04:19:05;;;;;;;14.07;10.65;;;7.10;74.50;;;;;;5009091;28;20018;-65
2021/01/08 04:21:31;;;;;;;14.45;10.10;;;7.10;74.70;;;;;;5012813;28;20051;-65
2021/01/08 04:23:57;;;;;;;13.82;10.07;;;7.10;74.60;;;;;;5013262;28;20071;-65
2021/01/08 04:26:23;;;;;;;14.70;10.18;;;7.10;74.70;;;;;;5012085;28;20101;-65
2021/01/08 04:28:48;;;;;;;17.23;11.48;;;7.10;74.60;;;;;;5013736;28;20042;-65
2021/01/08 04:31:15;;;;;;;17.58;10.60;;;7.00;74.50;;;;;;5012915;28;20026;-65
2021/01/08 04:33:41;;;;;;;15.95;11.05;;;7.00;74.90;;;;;;5012245;28;20018;-65
2021/01/08 04:36:10;;;;;;;18.40;12.45;;;7.00;75.00;;;;;;5012885;28;20032;-65
2021/01/08 04:38:37;;;;;;;18.77;12.10;;;7.00;74.90;;;;;;5012588;28;20104;-65
2021/01/08 04:41:05;;;;;;;19.23;11.98;;;7.00;74.80;;;;;;5013132;28;20029;-65
2021/01/08 04:43:31;;;;;;;16.90;11.50;;;7.00;75.00;;;;;;5008394;28;20370;-66
2021/01/08 04:46:21;;;;;;;15.35;10.38;;;7.10;75.40;;;;;;5015866;28;20053;-65
2021/01/08 04:48:48;;;;;;;15.05;10.65;;;7.10;74.80;;;;;;5012654;28;20018;-65
2021/01/08 04:51:15;;;;;;;15.30;11.30;;;7.10;74.70;;;;;;5007748;28;20030;-65
2021/01/08 04:53:41;;;;;;;17.35;11.65;;;7.00;74.40;;;;;;5013113;28;20018;-65
2021/01/08 04:56:10;;;;;;;17.80;11.15;;;7.00;74.50;;;;;;5012952;28;20032;-65
2021/01/08 04:58:36;;;;;;;15.57;11.50;;;7.00;74.50;;;;;;5013399;28;20524;-65
2021/01/08 05:01:03;;;;;;;16.52;11.45;;;7.00;74.10;;;;;;5000387;28;20026;-65
2021/01/08 05:03:29;;;;;;;15.65;11.00;;;6.90;74.00;;;;;;5014043;28;20033;-65
2021/01/08 05:05:56;;;;;;;17.10;11.75;;;6.80;73.80;;;;;;5015673;28;20504;-65
2021/01/08 05:08:22;;;;;;;17.85;11.65;;;6.80;74.00;;;;;;5017253;28;20033;-65
2021/01/08 05:10:48;;;;;;;16.65;11.60;;;6.70;74.60;;;;;;5014286;28;20030;-65
2021/01/08 05:13:14;;;;;;;14.52;11.23;;;6.70;74.50;;;;;;5014884;28;20382;-65
2021/01/08 05:15:40;;;;;;;18.80;12.88;;;6.70;74.50;;;;;;5015053;28;20030;-65
2021/01/08 05:18:07;;;;;;;15.38;10.73;;;6.60;74.70;;;;;;5017107;28;20079;-65
2021/01/08 05:20:33;;;;;;;15.52;10.40;;;6.70;74.90;;;;;;5013824;28;20018;-65
2021/01/08 05:22:59;;;;;;;16.35;11.70;;;6.60;74.50;;;;;;5017437;28;20030;-65
2021/01/08 05:25:25;;;;;;;16.55;11.02;;;6.60;74.30;;;;;;5014413;28;20053;-65
2021/01/08 05:27:51;;;;;;;14.43;10.15;;;6.50;74.30;;;;;;5037326;28;20049;-65
2021/01/08 05:30:25;;;;;;;14.35;10.32;;;6.50;74.50;;;;;;5012395;28;20021;-65
2021/01/08 05:32:59;;;;;;;12.32;9.07;;;6.50;74.20;;;;;;5016025;28;20081;-65
2021/01/08 05:35:25;;;;;;;16.27;9.65;;;6.40;73.90;;;;;;5016440;28;20030;-64
2021/01/08 05:37:56;;;;;;;16.45;9.85;;;6.30;74.00;;;;;;5014374;28;20554;-65
2021/01/08 05:40:25;;;;;;;15.77;10.45;;;6.30;74.40;;;;;;5016464;28;20105;-65
2021/01/08 05:42:56;;;;;;;13.98;9.75;;;6.30;74.50;;;;;;5016287;28;20042;-65
2021/01/08 05:45:23;;;;;;;14.10;10.10;;;6.30;74.60;;;;;;5015265;28;20433;-65
2021/01/08 05:47:51;;;;;;;16.90;10.40;;;6.30;74.60;;;;;;5012893;28;20034;-65
2021/01/08 05:50:22;;;;;;;15.15;10.23;;;6.30;74.40;;;;;;5013407;28;20030;-65
2021/01/08 05:53:14;;;;;;;15.57;10.88;;;6.20;74.40;;;;;;5015785;28;20026;-65
2021/01/08 05:55:41;;;;;;;16.95;12.45;;;6.20;74.50;;;;;;5016008;28;20088;-65
2021/01/08 05:58:23;;;;;;;16.30;10.52;;;6.20;74.60;;;;;;5013191;28;20386;-65
2021/01/08 06:00:56;;;;;;;18.48;11.75;;;6.20;74.60;;;;;;5006783;28;20018;-65
2021/01/08 06:03:22;;;;;;;20.70;12.23;;;6.20;74.60;;;;;;5015778;28;20018;-65
2021/01/08 06:05:56;;;;;;;18.27;11.70;;;6.20;74.80;;;;;;5015209;28;20109;-65
2021/01/08 06:08:31;;;;;;;18.13;11.50;;;6.30;74.60;;;;;;5006441;28;20502;-65
2021/01/08 06:11:00;;;;;;;17.77;11.75;;;6.20;74.50;;;;;;5005881;28;20030;-65
2021/01/08 06:13:33;;;;;;;18.75;10.77;;;6.20;74.60;;;;;;5013257;28;20117;-65
2021/01/08 06:16:01;;;;;;;17.63;10.95;;;6.20;74.50;;;;;;5014395;28;20084;-65
2021/01/08 06:18:28;;;;;;;16.40;11.95;;;6.20;74.40;;;;;;5014327;28;20056;-65
2021/01/08 06:21:03;;;;;;;17.73;11.65;;;6.20;74.40;;;;;;5014727;28;20371;-63
2021/01/08 06:23:45;;;;;;;15.73;10.88;;;6.10;74.00;;;;;;5013836;28;20049;-62
2021/01/08 06:26:16;;;;;;;14.25;10.07;;;6.10;74.00;;;;;;5011647;28;20026;-63
2021/01/08 06:28:44;;;;;;;16.70;10.80;;;6.00;74.20;;;;;;5013804;28;20513;-63
2021/01/08 06:31:21;;;;;;;15.48;10.23;;;6.00;74.30;;;;;;5011998;28;20077;-61
2021/01/08 06:34:01;;;;;;;18.27;11.57;;;5.90;74.60;;;;;;5011052;28;20126;-64
2021/01/08 06:36:34;;;;;;;16.20;10.63;;;6.00;74.90;;;;;;5010410;28;20754;-63
2021/01/08 06:39:03;;;;;;;19.45;11.43;;;6.00;74.70;;;;;;5008912;28;20026;-65
2021/01/08 06:41:28;;;;;;;16.92;11.10;;;5.90;74.50;;;;;;5007640;28;20026;-68
2021/01/08 06:44:05;;;;;;;17.35;11.43;;;6.00;74.90;;;;;;5012954;28;20368;-66
2021/01/08 06:46:42;;;;;;;16.67;11.27;;;5.90;74.70;;;;;;5014188;28;20018;-66
2021/01/08 06:49:12;;;;;;;15.88;10.55;;;5.90;74.60;;;;;;5012105;28;20022;-68
2021/01/08 06:51:40;;;;;;;16.60;10.20;;;5.90;74.40;;;;;;5013650;28;20030;-66
2021/01/08 06:54:06;;;;;;;15.75;9.68;;;5.80;74.60;;;;;;5012647;28;20030;-65
2021/01/08 06:56:34;;;;;;;14.52;9.88;;;5.80;74.80;;;;;;5010133;28;20385;-66
2021/01/08 06:59:01;;;;;;;14.23;9.27;;;5.80;75.10;;;;;;5003663;28;20417;-65
2021/01/08 07:01:59;;;;;;;14.15;10.20;;;5.80;75.20;;;;;;5007409;28;20080;-66
2021/01/08 07:04:31;;;;;;;14.02;9.80;;;5.90;75.00;;;;;;5010691;28;20034;-66
2021/01/08 07:06:59;;;;;;;15.32;9.68;;;5.90;75.50;;;;;;5010177;28;20508;-65
2021/01/08 07:09:32;;;;;;;15.30;10.20;;;5.90;75.30;;;;;;5010266;28;20048;-65
2021/01/08 07:11:59;;;;;;;17.05;11.27;;;6.00;75.60;;;;;;5000565;28;20026;-65
2021/01/08 07:14:25;;;;;;;17.75;11.07;;;6.10;75.50;;;;;;5004348;28;20025;-65
2021/01/08 07:16:55;;;;;;;18.35;11.70;;;6.10;75.30;;;;;;5010164;28;20478;-66
2021/01/08 07:19:23;;;;;;;16.83;10.77;;;6.20;75.50;;;;;;5008833;28;20034;-65
2021/01/08 07:21:51;;;;;;;21.60;14.02;;;6.30;75.40;;;;;;5001133;28;20027;-65
2021/01/08 07:24:31;;;;;;;21.80;13.57;;;6.30;75.00;;;;;;5000006;28;20125;-65
2021/01/08 07:27:16;;;;;;;20.52;13.48;;;6.40;75.20;;;;;;5005795;28;20577;-66
2021/01/08 07:29:55;;;;;;;18.85;11.85;;;6.50;75.30;;;;;;5002528;28;20037;-65
2021/01/08 07:32:37;;;;;;;19.25;12.32;;;6.50;75.20;;;;;;5012557;28;20026;-65
2021/01/08 07:35:28;;;;;;;20.35;12.30;;;6.60;75.00;;;;;;5006313;28;20081;-65
2021/01/08 07:38:14;;;;;;;15.77;10.52;;;6.60;74.80;;;;;;5006672;28;20018;-65
2021/01/08 07:40:48;;;;;;;16.00;10.77;;;6.70;74.80;;;;;;5004114;28;20041;-65
2021/01/08 07:43:15;;;;;;;15.73;9.95;;;6.80;74.50;;;;;;5014364;28;20034;-65
2021/01/08 07:45:48;;;;;;;14.57;9.13;;;6.80;74.20;;;;;;5004404;28;20029;-65
2021/01/08 07:48:39;;;;;;;12.98;8.95;;;6.80;73.50;;;;;;4998321;28;20092;-65
2021/01/08 07:51:13;;;;;;;12.52;8.02;;;6.80;73.30;;;;;;5001336;28;20026;-65
2021/01/08 07:53:47;;;;;;;12.93;8.27;;;6.80;73.10;;;;;;5004356;28;20036;-65
2021/01/08 07:56:23;;;;;;;11.00;7.68;;;6.70;73.30;;;;;;5008472;28;20030;-65
2021/01/08 07:59:03;;;;;;;10.40;7.25;;;6.70;73.00;;;;;;5003500;28;20362;-65
2021/01/08 08:01:29;;;;;;;12.13;7.43;;;6.60;72.70;;;;;;5007242;28;20018;-65
2021/01/08 08:04:02;;;;;;;14.05;8.68;;;6.60;72.70;;;;;;5007067;28;20071;-65
2021/01/08 08:06:29;;;;;;;15.43;9.55;;;6.60;73.00;;;;;;5007019;28;20438;-65
2021/01/08 08:09:01;;;;;;;13.35;9.45;;;6.60;73.20;;;;;;5007772;28;20076;-65
2021/01/08 08:11:33;;;;;;;12.60;8.50;;;6.70;73.20;;;;;;5008033;28;20389;-65
2021/01/08 08:13:58;;;;;;;;;;;6.70;73.30;;;;;;5006067;28;20030;-65
2021/01/08 08:16:35;;;;;;;14.23;9.20;;;6.70;73.20;;;;;;5002676;28;20377;-65
2021/01/08 08:19:05;;;;;;;15.55;9.20;;;6.80;73.70;;;;;;4998470;28;20518;-66
2021/01/08 08:21:31;;;;;;;15.90;10.90;;;6.90;73.60;;;;;;5004283;28;20081;-66
2021/01/08 08:23:59;;;;;;;17.33;9.68;;;7.00;73.50;;;;;;5007772;28;20482;-66
2021/01/08 08:26:27;;;;;;;16.15;9.23;;;7.00;73.40;;;;;;5005121;28;20080;-66
2021/01/08 08:29:05;;;;;;;16.25;9.73;;;7.10;73.20;;;;;;5004386;28;20405;-66
2021/01/08 08:31:33;;;;;;;13.80;9.15;;;7.20;73.00;;;;;;5001318;28;20041;-65
2021/01/08 08:34:00;;;;;;;14.63;9.23;;;7.20;72.80;;;;;;5000112;28;20042;-66
2021/01/08 08:36:28;;;;;;;14.38;8.95;;;7.30;72.60;;;;;;5009457;28;20038;-66
2021/01/08 08:39:17;;;;;;;15.30;9.63;;;7.30;72.50;;;;;;4999465;28;20045;-65
2021/01/08 08:41:45;;;;;;;15.50;10.45;;;7.30;72.10;;;;;;5019829;28;20038;-66
2021/01/08 08:44:13;;;;;;;14.20;10.13;;;7.30;72.20;;;;;;5007463;28;20480;-66
2021/01/08 08:46:46;;;;;;;14.05;9.95;;;7.30;72.20;;;;;;5006824;28;20032;-66
2021/01/08 08:49:14;;;;;;;14.65;10.30;;;7.30;72.20;;;;;;5005581;28;20120;-66
2021/01/08 08:51:44;;;;;;;14.95;9.75;;;7.40;72.00;;;;;;5005200;28;20113;-66
2021/01/08 08:54:11;;;;;;;12.63;8.73;;;7.50;71.40;;;;;;4998751;28;20120;-66
2021/01/08 08:56:47;;;;;;;13.70;9.07;;;7.50;71.40;;;;;;5007862;28;20018;-66
2021/01/08 08:59:13;;;;;;;14.90;9.70;;;7.40;71.40;;;;;;5006580;28;20030;-66
2021/01/08 09:01:40;;;;;;;13.23;8.75;;;7.40;70.70;;;;;;5007313;28;20029;-65
2021/01/08 09:04:07;;;;;;;13.15;9.05;;;7.40;71.00;;;;;;5007859;28;20117;-66
2021/01/08 09:06:55;;;;;;;16.52;10.63;;;7.40;70.10;;;;;;5005326;28;20036;-66
2021/01/08 09:09:24;;;;;;;13.35;9.85;;;7.40;70.00;;;;;;5005996;28;20040;-66
2021/01/08 09:12:06;;;;;;;12.77;9.45;;;7.30;70.50;;;;;;5005035;28;20401;-66
2021/01/08 09:14:36;;;;;;;12.20;8.73;;;7.30;70.30;;;;;;5009347;28;20093;-66
2021/01/08 09:17:23;;;;;;;12.90;7.97;;;7.30;70.20;;;;;;5009889;28;20387;-66
2021/01/08 09:19:52;;;;;;;12.45;7.57;;;7.30;69.60;;;;;;4999909;28;20459;-66
2021/01/08 09:22:18;;;;;;;11.07;8.15;;;7.30;69.90;;;;;;4998710;28;20022;-66
2021/01/08 09:24:48;;;;;;;12.43;8.48;;;7.30;69.80;;;;;;5006274;28;20034;-66
2021/01/08 09:27:14;;;;;;;11.77;8.32;;;7.20;69.30;;;;;;5004359;28;20148;-66
2021/01/08 09:29:40;;;;;;;14.15;9.73;;;7.10;69.50;;;;;;5009545;28;20550;-66
2021/01/08 09:32:07;;;;;;;14.07;9.40;;;7.10;70.00;;;;;;5006472;28;20117;-66
2021/01/08 09:34:34;;;;;;;11.27;9.15;;;7.00;70.10;;;;;;5007587;28;20061;-66
2021/01/08 09:37:15;;;;;;;13.02;9.02;;;7.10;70.30;;;;;;5003489;28;20034;-66
2021/01/08 09:39:43;;;;;;;11.82;8.95;;;7.10;70.10;;;;;;5005799;28;20068;-66
2021/01/08 09:42:10;;;;;;;12.00;8.82;;;7.10;70.20;;;;;;5007151;28;20030;-66
2021/01/08 09:44:38;;;;;;;14.38;9.27;;;7.20;70.10;;;;;;5002698;28;20045;-66
2021/01/08 09:47:15;;;;;;;13.88;9.00;;;7.20;69.70;;;;;;5008336;28;20100;-66
2021/01/08 09:49:53;;;;;;;12.15;9.18;;;7.30;69.70;;;;;;5002451;28;20037;-66
2021/01/08 09:52:28;;;;;;;11.40;8.43;;;7.30;69.50;;;;;;5008041;28;20030;-66
2021/01/08 09:54:54;;;;;;;11.05;8.25;;;7.30;69.00;;;;;;5007739;28;20037;-66
2021/01/08 09:57:30;;;;;;;13.38;9.38;;;7.20;68.70;;;;;;5011350;28;20056;-66
2021/01/08 10:00:15;;;;;;;14.80;9.90;;;7.10;68.60;;;;;;5001218;28;20025;-66
2021/01/08 10:02:42;;;;;;;11.05;8.55;;;7.10;68.80;;;;;;5007083;28;20040;-66
2021/01/08 10:05:23;;;;;;;14.63;9.50;;;7.00;69.10;;;;;;5012638;28;20040;-65
2021/01/08 10:07:49;;;;;;;14.05;9.93;;;7.00;69.40;;;;;;5003572;28;20022;-66
2021/01/08 10:10:27;;;;;;;15.35;10.77;;;7.00;69.80;;;;;;5007311;28;20045;-65
2021/01/08 10:12:57;;;;;;;14.00;9.52;;;7.00;69.60;;;;;;5012332;28;20042;-65
2021/01/08 10:15:43;;;;;;;12.55;8.73;;;7.10;69.50;;;;;;5007566;28;20041;-66
2021/01/08 10:18:13;;;;;;;12.60;9.02;;;7.00;68.60;;;;;;5010690;28;20025;-65
2021/01/08 10:20:47;;;;;;;15.20;10.25;;;6.90;68.60;;;;;;5008142;28;20357;-66
2021/01/08 10:23:15;;;;;;;16.13;9.98;;;6.80;68.70;;;;;;5006092;28;20025;-65
2021/01/08 10:25:42;;;;;;;15.32;10.13;;;6.70;68.90;;;;;;5007794;28;20029;-66
2021/01/08 10:28:25;;;;;;;20.30;10.52;;;6.70;69.20;;;;;;5008071;28;20512;-66
2021/01/08 10:30:54;;;;;;;12.57;8.80;;;6.70;69.60;;;;;;5003966;28;20457;-66
2021/01/08 10:33:26;;;;;;;12.65;8.18;;;6.70;69.60;;;;;;5002933;28;20026;-65
2021/01/08 10:35:54;;;;;;;14.73;8.68;;;6.80;69.20;;;;;;5006049;28;20038;-65
2021/01/08 10:38:20;;;;;;;12.77;9.05;;;6.70;68.80;;;;;;5008984;28;20072;-65
2021/01/08 10:40:46;;;;;;;15.10;9.40;;;6.70;69.00;;;;;;5003738;28;20022;-66
2021/01/08 10:43:12;;;;;;;12.20;8.80;;;6.70;69.10;;;;;;5003253;28;20022;-65
2021/01/08 10:45:39;;;;;;;13.68;9.38;;;6.70;69.50;;;;;;5008340;28;20080;-65
2021/01/08 10:48:05;;;;;;;15.10;10.20;;;6.80;69.50;;;;;;5009113;28;20536;-65
2021/01/08 10:50:32;;;;;;;14.18;10.48;;;6.80;69.40;;;;;;5005747;28;20034;-66
2021/01/08 10:52:59;;;;;;;15.43;10.25;;;6.90;69.40;;;;;;5005359;28;20104;-65
2021/01/08 10:55:25;;;;;;;13.52;9.93;;;6.90;69.00;;;;;;5010102;28;20026;-67
2021/01/08 10:57:50;;;;;;;13.57;9.63;;;7.00;69.10;;;;;;5008501;28;20092;-67
2021/01/08 11:00:18;;;;;;;13.40;8.93;;;7.00;69.00;;;;;;5008507;28;20017;-65
2021/01/08 11:02:44;;;;;;;15.02;10.35;;;7.10;68.90;;;;;;5006999;28;20092;-66
2021/01/08 11:05:11;;;;;;;13.02;10.00;;;7.10;68.70;;;;;;5006577;28;20026;-66
2021/01/08 11:07:37;;;;;;;12.52;8.73;;;7.10;68.60;;;;;;5005834;28;20061;-65
2021/01/08 11:10:05;;;;;;;13.15;8.98;;;7.10;68.70;;;;;;5009035;28;20098;-66
2021/01/08 11:12:34;;;;;;;11.82;8.55;;;7.20;68.30;;;;;;5006955;28;20481;-66
2021/01/08 11:15:04;;;;;;;12.20;8.73;;;7.10;68.30;;;;;;5006506;28;20022;-65
2021/01/08 11:17:29;;;;;;;11.10;8.82;;;7.20;68.00;;;;;;5006925;28;20105;-66
2021/01/08 11:19:55;;;;;;;11.38;8.90;;;7.10;68.10;;;;;;5001378;28;20093;-66
2021/01/08 11:22:21;;;;;;;11.68;9.70;;;7.20;67.90;;;;;;5005024;28;20592;-66
2021/01/08 11:24:47;;;;;;;13.25;9.57;;;7.20;67.80;;;;;;5006379;28;20040;-65
2021/01/08 11:27:12;;;;;;;13.93;10.18;;;7.20;67.60;;;;;;5006284;28;20497;-65
2021/01/08 11:29:38;;;;;;;13.75;9.77;;;7.30;67.50;;;;;;5007371;28;20034;-66
2021/01/08 11:32:08;;;;;;;15.88;10.38;;;7.30;67.70;;;;;;5009428;28;20501;-66
2021/01/08 11:34:34;;;;;;;12.82;9.05;;;7.30;67.50;;;;;;5004970;28;20036;-66
2021/01/08 11:37:00;;;;;;;15.05;9.95;;;7.30;67.40;;;;;;5008374;28;20030;-66
2021/01/08 11:39:25;;;;;;;13.02;9.65;;;7.40;67.50;;;;;;5007919;28;20076;-66
2021/01/08 11:41:55;;;;;;;12.80;8.85;;;7.40;67.30;;;;;;5007656;28;20466;-65
2021/01/08 11:44:24;;;;;;;12.35;8.88;;;7.40;67.10;;;;;;5004994;28;20038;-65
2021/01/08 11:46:51;;;;;;;12.73;9.57;;;7.40;66.90;;;;;;5005484;28;20032;-66
2021/01/08 11:49:17;;;;;;;13.38;9.48;;;7.40;67.10;;;;;;5010219;28;20057;-66
2021/01/08 11:51:43;;;;;;;12.35;9.30;;;7.40;67.00;;;;;;5002316;28;20029;-66
2021/01/08 11:54:09;;;;;;;12.43;8.50;;;7.40;66.90;;;;;;5002518;28;20022;-66
2021/01/08 11:56:35;;;;;;;14.43;9.90;;;7.30;66.80;;;;;;5001226;28;20047;-66
2021/01/08 11:59:01;;;;;;;13.98;9.77;;;7.30;67.00;;;;;;4998207;28;20029;-66
2021/01/08 12:01:27;;;;;;;12.25;9.07;;;7.30;67.10;;;;;;5004979;28;20387;-66
2021/01/08 12:03:54;;;;;;;13.85;9.77;;;7.40;67.00;;;;;;5008779;28;20049;-66
2021/01/08 12:06:33;;;;;;;14.77;10.02;;;7.30;67.10;;;;;;5001507;28;20032;-64
2021/01/08 12:09:00;;;;;;;13.68;9.13;;;7.30;67.00;;;;;;5002459;28;20092;-66
2021/01/08 12:11:29;;;;;;;13.00;9.55;;;7.40;67.10;;;;;;5002189;28;20026;-64
2021/01/08 12:13:55;;;;;;;15.55;9.52;;;7.40;66.80;;;;;;5005587;28;20038;-64
2021/01/08 12:16:31;;;;;;;12.60;9.25;;;7.30;66.50;;;;;;5004363;28;20042;-64
2021/01/08 12:18:57;;;;;;;13.13;9.63;;;7.30;66.90;;;;;;5009699;28;20030;-65
2021/01/08 12:21:24;;;;;;;14.50;10.35;;;7.30;67.00;;;;;;5004838;28;20120;-65
2021/01/08 12:23:53;;;;;;;13.27;9.63;;;7.30;66.60;;;;;;5003918;28;20052;-65
2021/01/08 12:26:20;;;;;;;13.93;10.40;;;7.20;66.60;;;;;;5000590;28;20097;-65
2021/01/08 12:28:47;;;;;;;12.70;9.32;;;7.20;66.90;;;;;;5002875;28;20397;-65
2021/01/08 12:31:13;;;;;;;17.58;10.68;;;7.20;66.90;;;;;;5000146;28;20038;-65
2021/01/08 12:33:38;;;;;;;14.82;10.10;;;7.20;66.80;;;;;;5002696;28;20037;-65
2021/01/08 12:36:05;;;;;;;15.15;10.60;;;7.20;66.80;;;;;;5007550;28;20458;-65
2021/01/08 12:38:32;;;;;;;14.68;9.90;;;7.20;66.90;;;;;;5000483;28;20034;-65
2021/01/08 12:40:59;;;;;;;16.88;10.38;;;7.20;66.90;;;;;;5003636;28;20021;-65
2021/01/08 12:43:25;;;;;;;17.48;11.60;;;7.20;66.80;;;;;;5006644;28;20037;-65
2021/01/08 12:45:51;;;;;;;16.30;10.30;;;7.20;67.00;;;;;;5008550;28;20370;-65
2021/01/08 12:48:17;;;;;;;15.05;10.05;;;7.30;67.00;;;;;;5008197;28;20034;-65
2021/01/08 12:50:43;;;;;;;16.35;10.55;;;7.30;66.60;;;;;;5011010;28;20030;-65
2021/01/08 12:53:09;;;;;;;18.35;10.70;;;7.30;66.70;;;;;;5001580;28;20027;-65
2021/01/08 12:55:35;;;;;;;16.65;11.20;;;7.30;66.60;;;;;;4998448;28;20030;-65